Terminal Aerodrome Forecast
Issued by NWS

Home | Current Version | Previous Version | Text Only | Print | Product List | Glossary On
Versions: 1 2 3 4 5 6 7 8 9 10 11 12 13 14 15 16 17 18 19 20 21 22 23 24 25 26 27 28 29 30
000
FTUS45 KBOU 211856 AAA
TAFAPA
TAF AMD
KAPA 211856Z 2119/2218 VRB05KT P6SM FEW140 SCT200
     FM212000 34006KT P6SM SCT080 BKN150
     FM212300 30010KT P6SM SCT070 BKN120
      TEMPO 2200/2204 -SHRA SCT060 BKN080
     FM220400 24008KT P6SM VCSH SCT080 BKN150
     FM221100 31008KT P6SM SCT080 SCT150
     FM221400 VRB05KT P6SM SCT080 SCT150=

USA.gov is the U.S. government's official web portal to all federal, state and local government web resources and services.